Details From KRIC - Richmond Intl
To KWAL - WALLOPS FLIGHT FACILITY
Flight Number -
Tags decoded
Created
Modified
Stats Distance 95 nm / 177 km
Max Altitude 0 ft / 0 m
Waypoints 4
Social Downloads 0
Likes 0
Share VATSIM

Download

Looking for another format? Having issues loading an existing format? Contact us
Advertisement - Login to hide

Notes

Requested: KRIC CURAB RIMUE KWAL

Route

KRIC CURAB RIMUE KWAL

ID Type Via Altitude Latitude Longitude Leg Dist Tot Dist Heading (true) Name
O KRIC APT - 0 ft / 0 m 37.50473˚ -77.32011˚ - 0 nm - Richmond Intl
CURAB FIX - 0 ft / 0 m 37.77138˚ -75.59432˚ 83 nm 83 nm 78° / 79° -
RIMUE FIX - 0 ft / 0 m 37.85619˚ -75.52717˚ 6 nm 89 nm 32° / 32° -
O KWAL APT - 0 ft / 0 m 37.94039˚ -75.46628˚ 5 nm 95 nm 30° / 30° WALLOPS FLIGHT FACILITY

Altitude Profile

Advertisement - Login to hide

KRIC

Details ICAO KRIC (RIC)
Name Richmond Intl
Region United States
Timezone America/New_York (UTC-5.0)
Stats Elevation 167 ft / 51 m (AMSL)
Location 37.504728° -77.320112°
Runways 3
Magnetic Variation 10.381° W

METAR

KRIC 141854Z 34007KT 10SM FEW070 BKN300 13/M04 A2985 RMK AO2 SLP115 T01281039

Decode

TAF

TAF KRIC 141720Z 1418/1518 33010G16KT P6SM SCT060 BKN250 FM142100 34007KT P6SM BKN250 FM150000 VRB03KT P6SM BKN250 FM151200 05004KT P6SM BKN050

Decode

Departure Runways

ID Width Length Bearing (true) Bearing (mag) Surface Threshold Offset Overrun Length
02 151 ft / 46 m 6,619 ft / 2,018 m 13.39° 23.77° Asphalt 0 ft / 0 m 125 ft / 38 m
07 98 ft / 30 m 5,312 ft / 1,619 m 57.36° 67.74° Asphalt 0 ft / 0 m 200 ft / 61 m
16 151 ft / 46 m 9,027 ft / 2,751 m 147.64° 158.02° Asphalt 0 ft / 0 m 1,001 ft / 305 m
20 151 ft / 46 m 6,619 ft / 2,018 m 193.39° 203.77° Asphalt 0 ft / 0 m 276 ft / 84 m
25 98 ft / 30 m 5,312 ft / 1,619 m 237.36° 247.74° Asphalt 0 ft / 0 m 0 ft / 0 m
34 151 ft / 46 m 9,027 ft / 2,751 m 327.66° 338.04° Asphalt 0 ft / 0 m 1,001 ft / 305 m

KWAL

Details ICAO KWAL (WAL)
Name WALLOPS FLIGHT FACILITY
Region United States
Timezone America/New_York (UTC-5.0)
Stats Elevation 40 ft / 12 m (AMSL)
Location 37.940390° -75.466276°
Runways 3
Magnetic Variation 11.523° W

METAR

KWAL 141854Z 35013KT 10SM FEW050 SCT080 BKN200 07/M03 A2984 RMK AO2 PK WND 32028/1758 SLP102 T00671028

Decode

TAF

Not found

Destination Runways

ID Width Length Bearing (true) Bearing (mag) Surface Threshold Offset Overrun Length
04 150 ft / 46 m 8,757 ft / 2,669 m 32.07° 43.59° Asphalt 0 ft / 0 m 0 ft / 0 m
10 200 ft / 61 m 7,988 ft / 2,435 m 90.36° 101.88° Asphalt 0 ft / 0 m 0 ft / 0 m
17 150 ft / 46 m 4,816 ft / 1,468 m 157.81° 169.33° Asphalt 0 ft / 0 m 0 ft / 0 m
22 150 ft / 46 m 8,757 ft / 2,669 m 212.08° 223.60° Asphalt 0 ft / 0 m 0 ft / 0 m
28 200 ft / 61 m 7,988 ft / 2,435 m 270.37° 281.89° Asphalt 0 ft / 0 m 0 ft / 0 m
35 150 ft / 46 m 4,816 ft / 1,468 m 337.81° 349.33° Asphalt 0 ft / 0 m 0 ft / 0 m

Popular Alternatives